createdAt,value
2018-11-11T00:00:14.858Z,929.30
2018-11-11T00:01:14.847Z,929.31
2018-11-11T00:02:14.835Z,929.27
2018-11-11T00:03:14.844Z,929.30
2018-11-11T00:04:14.823Z,929.30
2018-11-11T00:05:14.801Z,929.31
2018-11-11T00:06:14.791Z,929.36
2018-11-11T00:07:14.777Z,929.40
2018-11-11T00:08:14.766Z,929.38
2018-11-11T00:09:14.774Z,929.44
2018-11-11T00:10:14.754Z,929.45
2018-11-11T00:11:14.732Z,929.51
2018-11-11T00:12:14.721Z,929.47
2018-11-11T00:13:14.710Z,929.44
2018-11-11T00:14:14.714Z,929.45
2018-11-11T00:15:14.687Z,929.50
2018-11-11T00:16:14.682Z,929.55
2018-11-11T00:17:14.665Z,929.53
2018-11-11T00:18:14.657Z,929.62
2018-11-11T00:19:14.662Z,929.62
2018-11-11T00:20:14.631Z,929.53
2018-11-11T00:21:14.618Z,929.55
2018-11-11T00:22:14.621Z,929.49
2018-11-11T00:23:14.614Z,929.55
2018-11-11T00:24:14.600Z,929.53
2018-11-11T00:25:14.575Z,929.46
2018-11-11T00:26:14.563Z,929.46
2018-11-11T00:27:14.553Z,929.55
2018-11-11T00:28:14.552Z,929.54
2018-11-11T00:29:14.544Z,929.52
2018-11-11T00:30:14.517Z,929.52
2018-11-11T00:31:14.507Z,929.56
2018-11-11T00:32:14.493Z,929.57
2018-11-11T00:33:14.482Z,929.58
2018-11-11T00:34:14.496Z,929.64
2018-11-11T00:35:14.463Z,929.62
2018-11-11T00:36:14.455Z,929.61
2018-11-11T00:37:14.437Z,929.63
2018-11-11T00:38:14.427Z,929.66
2018-11-11T00:39:14.430Z,929.67
2018-11-11T00:40:14.414Z,929.71
2018-11-11T00:41:14.394Z,929.75
2018-11-11T00:42:14.380Z,929.74
2018-11-11T00:43:14.368Z,929.72
2018-11-11T00:44:14.374Z,929.74
2018-11-11T00:45:14.345Z,929.73
2018-11-11T00:46:14.345Z,929.70
2018-11-11T00:47:14.321Z,929.69
2018-11-11T00:48:14.310Z,929.76
2018-11-11T00:49:14.326Z,929.74
2018-11-11T00:50:14.293Z,929.76
2018-11-11T00:51:14.279Z,929.76
2018-11-11T00:52:14.280Z,929.83
2018-11-11T00:53:14.255Z,929.83
2018-11-11T00:54:14.263Z,929.84
2018-11-11T00:55:14.234Z,929.85
2018-11-11T00:56:14.219Z,929.85
2018-11-11T00:57:14.209Z,929.90
2018-11-11T00:58:14.208Z,929.88
2018-11-11T00:59:14.201Z,929.92
2018-11-11T01:00:14.175Z,929.87
2018-11-11T01:01:14.166Z,929.94
2018-11-11T01:02:14.153Z,929.94
2018-11-11T01:03:14.140Z,929.95
2018-11-11T01:04:14.154Z,929.99
2018-11-11T01:05:14.117Z,929.94
2018-11-11T01:06:14.107Z,929.94
2018-11-11T01:07:14.095Z,929.97
2018-11-11T01:08:14.082Z,930.05
2018-11-11T01:09:14.085Z,930.04
2018-11-11T01:10:14.068Z,930.09
2018-11-11T01:11:14.051Z,930.09
2018-11-11T01:12:14.132Z,930.09
2018-11-11T01:13:14.029Z,930.12
2018-11-11T01:14:14.049Z,930.16
2018-11-11T01:15:14.005Z,930.17
2018-11-11T01:16:13.998Z,930.22
2018-11-11T01:17:13.982Z,930.22
2018-11-11T01:18:13.968Z,930.28
2018-11-11T01:19:13.960Z,930.33
2018-11-11T01:20:13.960Z,930.31
2018-11-11T01:21:13.937Z,930.34
2018-11-11T01:22:13.929Z,930.31
2018-11-11T01:23:13.914Z,930.37
2018-11-11T01:24:13.902Z,930.39
2018-11-11T01:25:13.909Z,930.43
2018-11-11T01:26:13.878Z,930.48
2018-11-11T01:27:13.867Z,930.48
2018-11-11T01:28:13.863Z,930.48
2018-11-11T01:29:13.843Z,930.52
2018-11-11T01:30:13.850Z,930.41
2018-11-11T01:31:13.856Z,930.51
2018-11-11T01:32:13.812Z,930.49
2018-11-11T01:33:13.798Z,930.51
2018-11-11T01:34:13.794Z,930.52
2018-11-11T01:35:13.791Z,930.51
2018-11-11T01:36:13.767Z,930.51
2018-11-11T01:37:13.754Z,930.56
2018-11-11T01:38:13.741Z,930.54
2018-11-11T01:39:13.737Z,930.54
2018-11-11T01:40:13.744Z,930.52
2018-11-11T01:41:13.709Z,930.52
2018-11-11T01:42:13.695Z,930.51
2018-11-11T01:43:13.684Z,930.56
2018-11-11T01:44:13.676Z,930.53
2018-11-11T01:45:13.678Z,930.52
2018-11-11T01:46:13.660Z,930.55
2018-11-11T01:47:13.641Z,930.54
2018-11-11T01:48:13.627Z,930.57
2018-11-11T01:49:13.617Z,930.56
2018-11-11T01:50:13.624Z,930.59
2018-11-11T01:51:13.595Z,930.53
2018-11-11T01:52:13.588Z,930.48
2018-11-11T01:53:13.576Z,930.50
2018-11-11T01:54:13.559Z,930.51
2018-11-11T01:55:13.565Z,930.49
2018-11-11T01:56:13.540Z,930.50
2018-11-11T01:57:13.528Z,930.54
2018-11-11T01:58:13.525Z,930.60
2018-11-11T01:59:13.502Z,930.63
2018-11-11T02:00:13.509Z,930.64
2018-11-11T02:01:13.478Z,930.71
2018-11-11T02:02:13.470Z,930.68
2018-11-11T02:03:13.459Z,930.71
2018-11-11T02:04:13.457Z,930.70
2018-11-11T02:05:13.449Z,930.75
2018-11-11T02:06:13.426Z,930.74
2018-11-11T02:07:13.416Z,930.73
2018-11-11T02:08:13.400Z,930.78
2018-11-11T02:09:13.392Z,930.79
2018-11-11T02:10:13.405Z,930.76
2018-11-11T02:11:13.369Z,930.80
2018-11-11T02:12:13.356Z,930.78
2018-11-11T02:13:13.344Z,930.79
2018-11-11T02:14:13.336Z,930.78
2018-11-11T02:15:13.336Z,930.81
2018-11-11T02:16:13.319Z,930.81
2018-11-11T02:17:13.298Z,930.82
2018-11-11T02:18:13.287Z,930.85
2018-11-11T02:19:13.276Z,930.84
2018-11-11T02:20:13.281Z,930.85
2018-11-11T02:21:13.398Z,930.86
2018-11-11T02:22:13.252Z,930.87
2018-11-11T02:23:13.232Z,930.91
2018-11-11T02:24:13.219Z,930.91
2018-11-11T02:25:13.225Z,930.91
2018-11-11T02:26:13.200Z,930.94
2018-11-11T02:27:13.187Z,930.93
2018-11-11T02:28:13.183Z,930.92
2018-11-11T02:29:13.162Z,930.91
2018-11-11T02:30:13.168Z,930.84
2018-11-11T02:31:13.140Z,930.86
2018-11-11T02:32:13.130Z,930.88
2018-11-11T02:33:13.120Z,930.89
2018-11-11T02:34:13.116Z,930.81
2018-11-11T02:35:13.111Z,930.84
2018-11-11T02:36:13.083Z,930.84
2018-11-11T02:37:13.088Z,930.79
2018-11-11T02:38:13.068Z,930.78
2018-11-11T02:39:13.050Z,930.78
2018-11-11T02:40:13.060Z,930.76
2018-11-11T02:41:13.026Z,930.78
2018-11-11T02:42:13.015Z,930.75
2018-11-11T02:43:13.005Z,930.78
2018-11-11T02:44:12.999Z,930.73
2018-11-11T02:45:12.998Z,930.68
2018-11-11T02:46:12.992Z,930.66
2018-11-11T02:47:12.959Z,930.67
2018-11-11T02:48:12.948Z,930.62
2018-11-11T02:49:12.935Z,930.64
2018-11-11T02:50:12.933Z,930.62
2018-11-11T02:51:12.928Z,930.57
2018-11-11T02:52:12.908Z,930.59
2018-11-11T02:53:12.890Z,930.60
2018-11-11T02:54:12.878Z,930.61
2018-11-11T02:55:12.868Z,930.57
2018-11-11T02:56:12.869Z,930.65
2018-11-11T02:57:12.843Z,930.64
2018-11-11T02:58:12.848Z,930.67
2018-11-11T02:59:12.834Z,930.68
2018-11-11T03:00:12.813Z,930.70
2018-11-11T03:01:12.814Z,930.72
2018-11-11T03:02:12.791Z,930.74
2018-11-11T03:03:12.783Z,930.77
2018-11-11T03:04:12.811Z,930.81
2018-11-11T03:05:12.764Z,930.85
2018-11-11T03:06:12.757Z,930.88
2018-11-11T03:07:12.732Z,930.89
2018-11-11T03:08:12.718Z,930.92
2018-11-11T03:09:12.708Z,930.86
2018-11-11T03:10:12.703Z,930.81
2018-11-11T03:11:12.698Z,930.84
2018-11-11T03:12:12.715Z,930.82
2018-11-11T03:13:12.695Z,930.83
2018-11-11T03:14:12.689Z,930.80
2018-11-11T03:15:12.676Z,930.87
2018-11-11T03:16:12.713Z,930.88
2018-11-11T03:17:12.615Z,930.86
2018-11-11T03:18:12.605Z,930.83
2018-11-11T03:19:12.599Z,930.85
2018-11-11T03:20:12.582Z,930.86
2018-11-11T03:21:12.585Z,930.91
2018-11-11T03:22:12.575Z,930.88
2018-11-11T03:23:12.553Z,930.94
2018-11-11T03:24:12.539Z,930.97
2018-11-11T03:25:12.527Z,930.94
2018-11-11T03:26:12.531Z,930.97
2018-11-11T03:27:12.502Z,930.99
2018-11-11T03:28:12.501Z,930.98
2018-11-11T03:29:12.485Z,931.06
2018-11-11T03:30:12.480Z,931.03
2018-11-11T03:31:12.475Z,931.07
2018-11-11T03:32:12.448Z,931.05
2018-11-11T03:33:12.432Z,931.06
2018-11-11T03:34:12.430Z,931.01
2018-11-11T03:35:12.415Z,931.07
2018-11-11T03:36:12.429Z,931.09
2018-11-11T03:37:12.396Z,931.09
2018-11-11T03:38:12.380Z,931.16
2018-11-11T03:39:12.370Z,931.16
2018-11-11T03:40:12.360Z,931.23
2018-11-11T03:41:12.345Z,931.21
2018-11-11T03:42:12.351Z,931.26
2018-11-11T03:43:12.327Z,931.27
2018-11-11T03:44:12.313Z,931.27
2018-11-11T03:45:12.299Z,931.24
2018-11-11T03:46:12.299Z,931.31
2018-11-11T03:47:12.291Z,931.28
2018-11-11T03:48:12.279Z,931.27
2018-11-11T03:49:12.253Z,931.25
2018-11-11T03:50:12.243Z,931.27
2018-11-11T03:51:12.230Z,931.29
2018-11-11T03:52:12.243Z,931.32
2018-11-11T03:53:12.215Z,931.31
2018-11-11T03:54:12.198Z,931.29
2018-11-11T03:55:12.189Z,931.31
2018-11-11T03:56:12.174Z,931.29
2018-11-11T03:57:12.177Z,931.35
2018-11-11T03:58:12.163Z,931.37
2018-11-11T03:59:12.141Z,931.41
2018-11-11T04:00:12.134Z,931.47
2018-11-11T04:01:12.117Z,931.42
2018-11-11T04:02:12.122Z,931.42
2018-11-11T04:03:12.097Z,931.41
2018-11-11T04:04:12.094Z,931.45
2018-11-11T04:05:12.092Z,931.43
2018-11-11T04:06:12.061Z,931.44
2018-11-11T04:07:12.061Z,931.44
2018-11-11T04:08:12.039Z,931.43
2018-11-11T04:09:12.026Z,931.42
2018-11-11T04:10:12.052Z,931.43
2018-11-11T04:11:12.007Z,931.37
2018-11-11T04:12:12.008Z,931.38
2018-11-11T04:13:11.986Z,931.39
2018-11-11T04:14:11.969Z,931.34
2018-11-11T04:15:11.969Z,931.36
2018-11-11T04:16:11.962Z,931.33
2018-11-11T04:17:11.955Z,931.29
2018-11-11T04:18:11.930Z,931.23
2018-11-11T04:19:11.914Z,931.14
2018-11-11T04:20:11.904Z,931.10
2018-11-11T04:21:11.895Z,930.99
2018-11-11T04:22:11.902Z,930.96
2018-11-11T04:23:11.872Z,930.90
2018-11-11T04:24:11.859Z,930.81
2018-11-11T04:25:11.848Z,930.79
2018-11-11T04:26:11.855Z,930.70
2018-11-11T04:27:11.849Z,930.64
2018-11-11T04:28:11.815Z,930.60
2018-11-11T04:29:11.809Z,930.54
2018-11-11T04:30:11.791Z,930.52
2018-11-11T04:31:11.782Z,930.43
2018-11-11T04:32:11.784Z,930.38
2018-11-11T04:33:11.766Z,930.25
2018-11-11T04:34:11.751Z,930.06
2018-11-11T04:35:11.738Z,929.84
2018-11-11T04:36:11.734Z,929.67
2018-11-11T04:37:11.751Z,929.58
2018-11-11T04:38:11.704Z,929.51
2018-11-11T04:39:11.766Z,929.58
2018-11-11T04:40:11.684Z,929.65
2018-11-11T04:41:11.664Z,929.73
2018-11-11T04:42:11.669Z,929.74
2018-11-11T04:43:11.644Z,929.85
2018-11-11T04:44:11.636Z,929.96
2018-11-11T04:45:11.641Z,930.04
2018-11-11T04:46:11.641Z,930.15
2018-11-11T04:47:11.614Z,930.21
2018-11-11T04:48:11.593Z,930.29
2018-11-11T04:49:11.578Z,930.36
2018-11-11T04:50:11.568Z,930.37
2018-11-11T04:51:11.562Z,930.47
2018-11-11T04:52:11.545Z,930.57
2018-11-11T04:53:11.547Z,930.68
2018-11-11T04:54:11.519Z,930.80
2018-11-11T04:55:11.515Z,930.92
2018-11-11T04:56:11.500Z,931.01
2018-11-11T04:57:11.497Z,931.03
2018-11-11T04:58:11.489Z,931.08
2018-11-11T04:59:11.470Z,931.10
2018-11-11T05:00:11.449Z,931.09
2018-11-11T05:01:11.449Z,931.13
2018-11-11T05:02:11.428Z,931.08
2018-11-11T05:03:11.441Z,931.07
2018-11-11T05:04:11.408Z,931.04
2018-11-11T05:05:11.399Z,931.02
2018-11-11T05:06:11.383Z,931.04
2018-11-11T05:07:11.374Z,931.01
2018-11-11T05:08:11.378Z,930.94
2018-11-11T05:09:11.361Z,930.98
2018-11-11T05:10:11.339Z,930.95
2018-11-11T05:11:11.328Z,930.99
2018-11-11T05:12:11.318Z,930.99
2018-11-11T05:13:11.321Z,931.07
2018-11-11T05:14:11.291Z,931.07
2018-11-11T05:15:11.290Z,931.09
2018-11-11T05:16:11.269Z,931.09
2018-11-11T05:17:11.259Z,931.05
2018-11-11T05:18:11.261Z,931.05
2018-11-11T05:19:11.239Z,931.03
2018-11-11T05:20:11.223Z,930.97
2018-11-11T05:21:11.225Z,930.97
2018-11-11T05:22:11.200Z,930.98
2018-11-11T05:23:11.258Z,930.99
2018-11-11T05:24:11.178Z,930.99
2018-11-11T05:25:11.167Z,930.99
2018-11-11T05:26:11.155Z,931.00
2018-11-11T05:27:11.156Z,930.99
2018-11-11T05:28:11.149Z,930.97
2018-11-11T05:29:11.123Z,930.98
2018-11-11T05:30:11.111Z,931.04
2018-11-11T05:31:11.102Z,930.97
2018-11-11T05:32:11.091Z,931.04
2018-11-11T05:33:11.100Z,931.03
2018-11-11T05:34:11.068Z,931.06
2018-11-11T05:35:11.056Z,931.10
2018-11-11T05:36:11.043Z,931.15
2018-11-11T05:37:11.035Z,931.10
2018-11-11T05:38:11.036Z,931.10
2018-11-11T05:39:11.022Z,931.08
2018-11-11T05:40:10.997Z,931.07
2018-11-11T05:41:10.988Z,931.07
2018-11-11T05:42:10.977Z,931.03
2018-11-11T05:43:10.981Z,931.07
2018-11-11T05:44:10.953Z,931.04
2018-11-11T05:45:10.950Z,931.01
2018-11-11T05:46:10.930Z,931.01
2018-11-11T05:47:10.919Z,931.02
2018-11-11T05:48:10.922Z,930.94
2018-11-11T05:49:10.901Z,930.96
2018-11-11T05:50:10.885Z,930.98
2018-11-11T05:51:10.886Z,930.99
2018-11-11T05:52:10.862Z,931.06
2018-11-11T05:53:10.869Z,931.05
2018-11-11T05:54:10.840Z,931.05
2018-11-11T05:55:10.828Z,931.05
2018-11-11T05:56:10.820Z,931.08
2018-11-11T05:57:10.820Z,931.09
2018-11-11T05:58:10.811Z,931.11
2018-11-11T05:59:10.785Z,931.16
2018-11-11T06:00:10.773Z,931.19
2018-11-11T06:01:10.759Z,931.22
2018-11-11T06:02:10.749Z,931.25
2018-11-11T06:03:10.768Z,931.29
2018-11-11T06:04:10.726Z,931.31
2018-11-11T06:05:10.716Z,931.34
2018-11-11T06:06:10.703Z,931.40
2018-11-11T06:07:10.692Z,931.35
2018-11-11T06:08:10.703Z,931.39
2018-11-11T06:09:10.680Z,931.30
2018-11-11T06:10:10.656Z,931.29
2018-11-11T06:11:10.648Z,931.25
2018-11-11T06:12:10.638Z,931.31
2018-11-11T06:13:10.655Z,931.32
2018-11-11T06:14:10.612Z,931.38
2018-11-11T06:15:10.612Z,931.31
2018-11-11T06:16:10.588Z,931.25
2018-11-11T06:17:10.768Z,931.19
2018-11-11T06:18:10.568Z,931.15
2018-11-11T06:19:10.569Z,931.15
2018-11-11T06:20:11.593Z,931.13
2018-11-11T06:21:10.531Z,931.22
2018-11-11T06:22:10.521Z,931.26
2018-11-11T06:23:10.519Z,931.34
2018-11-11T06:24:10.512Z,931.32
2018-11-11T06:25:10.486Z,931.22
2018-11-11T06:26:10.474Z,931.16
2018-11-11T06:27:10.463Z,931.10
2018-11-11T06:28:10.468Z,931.16
2018-11-11T06:29:10.459Z,931.18
2018-11-11T06:30:10.431Z,931.32
2018-11-11T06:31:10.418Z,931.38
2018-11-11T06:32:10.407Z,931.42
2018-11-11T06:33:10.395Z,931.40
2018-11-11T06:34:10.553Z,931.49
2018-11-11T06:35:10.376Z,931.44
2018-11-11T06:36:10.361Z,931.40
2018-11-11T06:37:10.350Z,931.33
2018-11-11T06:38:10.338Z,931.23
2018-11-11T06:39:10.341Z,931.25
2018-11-11T06:40:10.321Z,931.24
2018-11-11T06:41:10.304Z,931.22
2018-11-11T06:42:10.294Z,931.23
2018-11-11T06:43:10.282Z,931.26
2018-11-11T06:44:10.298Z,931.28
2018-11-11T06:45:10.261Z,931.34
2018-11-11T06:46:10.257Z,931.38
2018-11-11T06:47:10.242Z,931.39
2018-11-11T06:48:10.360Z,931.52
2018-11-11T06:49:10.227Z,931.60
2018-11-11T06:50:10.200Z,931.66
2018-11-11T06:51:10.192Z,931.65
2018-11-11T06:52:10.185Z,931.66
2018-11-11T06:53:10.167Z,931.60
2018-11-11T06:54:10.171Z,931.64
2018-11-11T06:55:10.143Z,931.65
2018-11-11T06:56:10.133Z,931.67
2018-11-11T06:57:10.122Z,931.65
2018-11-11T06:58:11.071Z,931.70
2018-11-11T06:59:10.114Z,931.68
2018-11-11T07:00:10.086Z,931.73
2018-11-11T07:01:10.174Z,931.66
2018-11-11T07:02:10.065Z,931.62
2018-11-11T07:03:10.056Z,931.62
2018-11-11T07:04:10.064Z,931.69
2018-11-11T07:05:10.049Z,931.74
2018-11-11T07:06:10.019Z,931.89
2018-11-11T07:07:10.007Z,931.94
2018-11-11T07:08:09.996Z,932.02
2018-11-11T07:09:10.412Z,932.07
2018-11-11T07:10:09.974Z,932.02
2018-11-11T07:11:09.964Z,931.97
2018-11-11T07:12:09.950Z,931.92
2018-11-11T07:13:09.940Z,931.79
2018-11-11T07:14:10.339Z,931.70
2018-11-11T07:15:10.348Z,931.72
2018-11-11T07:16:09.909Z,931.83
2018-11-11T07:17:09.896Z,931.99
2018-11-11T07:18:09.884Z,932.08
2018-11-11T07:19:09.875Z,932.17
2018-11-11T07:20:09.978Z,932.12
2018-11-11T07:21:09.859Z,931.98
2018-11-11T07:22:09.839Z,931.89
2018-11-11T07:23:09.828Z,931.79
2018-11-11T07:24:09.874Z,931.75
2018-11-11T07:25:09.831Z,931.80
2018-11-11T07:26:09.793Z,931.79
2018-11-11T07:27:09.793Z,931.78
2018-11-11T07:28:09.773Z,931.87
2018-11-11T07:29:09.766Z,931.89
2018-11-11T07:30:09.769Z,931.90
2018-11-11T07:31:09.740Z,931.94
2018-11-11T07:32:09.728Z,931.91
2018-11-11T07:33:09.720Z,931.88
2018-11-11T07:34:09.706Z,931.86
2018-11-11T07:35:09.716Z,931.82
2018-11-11T07:36:09.830Z,931.79
2018-11-11T07:37:09.673Z,931.81
2018-11-11T07:38:09.661Z,931.76
2018-11-11T07:39:09.655Z,931.82
2018-11-11T07:40:09.660Z,931.92
2018-11-11T07:41:09.629Z,931.99
2018-11-11T07:42:09.650Z,932.02
2018-11-11T07:43:09.605Z,932.04
2018-11-11T07:44:09.594Z,932.09
2018-11-11T07:45:09.603Z,932.20
2018-11-11T07:46:09.570Z,932.31
2018-11-11T07:47:09.560Z,932.41
2018-11-11T07:48:09.551Z,932.57
2018-11-11T07:49:09.538Z,932.73
2018-11-11T07:50:09.543Z,932.84
2018-11-11T07:51:09.527Z,932.88
2018-11-11T07:52:09.599Z,932.85
2018-11-11T07:53:09.492Z,932.84
2018-11-11T07:54:09.481Z,932.78
2018-11-11T07:55:09.553Z,932.84
2018-11-11T07:56:09.458Z,932.87
2018-11-11T07:57:09.454Z,932.87
2018-11-11T07:58:09.435Z,932.90
2018-11-11T07:59:09.424Z,932.85
2018-11-11T08:00:09.431Z,932.77
2018-11-11T08:01:09.400Z,932.75
2018-11-11T08:02:09.506Z,932.74
2018-11-11T08:03:09.438Z,932.69
2018-11-11T08:04:09.369Z,932.62
2018-11-11T08:05:09.371Z,932.65
2018-11-11T08:06:09.347Z,932.61
2018-11-11T08:07:09.335Z,932.62
2018-11-11T08:08:09.323Z,932.67
2018-11-11T08:09:09.319Z,932.67
2018-11-11T08:10:09.318Z,932.69
2018-11-11T08:11:09.330Z,932.77
2018-11-11T08:12:09.277Z,932.81
2018-11-11T08:13:09.268Z,932.83
2018-11-11T08:14:09.255Z,932.88
2018-11-11T08:15:09.266Z,932.96
2018-11-11T08:16:09.233Z,932.97
2018-11-11T08:17:09.221Z,932.95
2018-11-11T08:18:09.208Z,932.92
2018-11-11T08:19:09.196Z,932.91
2018-11-11T08:20:09.204Z,932.96
2018-11-11T08:21:09.187Z,933.00
2018-11-11T08:22:09.175Z,932.94
2018-11-11T08:23:09.152Z,932.96
2018-11-11T08:24:09.139Z,932.93
2018-11-11T08:25:09.145Z,932.93
2018-11-11T08:26:09.120Z,932.99
2018-11-11T08:27:09.114Z,932.93
2018-11-11T08:28:09.097Z,932.95
2018-11-11T08:29:09.082Z,932.96
2018-11-11T08:30:09.071Z,932.98
2018-11-11T08:31:09.077Z,932.94
2018-11-11T08:32:09.108Z,932.89
2018-11-11T08:33:09.047Z,932.88
2018-11-11T08:34:09.026Z,932.91
2018-11-11T08:35:09.014Z,932.95
2018-11-11T08:36:09.019Z,932.95
2018-11-11T08:37:08.993Z,933.03
2018-11-11T08:38:08.981Z,933.04
2018-11-11T08:39:08.981Z,933.11
2018-11-11T08:40:08.958Z,933.10
2018-11-11T08:41:08.961Z,933.14
2018-11-11T08:42:09.050Z,933.12
2018-11-11T08:43:08.925Z,933.08
2018-11-11T08:44:08.913Z,933.13
2018-11-11T08:45:08.899Z,933.20
2018-11-11T08:46:08.917Z,933.24
2018-11-11T08:47:08.880Z,933.22
2018-11-11T08:48:08.872Z,933.22
2018-11-11T08:49:08.858Z,933.21
2018-11-11T08:50:08.844Z,933.21
2018-11-11T08:51:08.847Z,933.17
2018-11-11T08:52:08.834Z,933.17
2018-11-11T08:53:08.810Z,933.12
2018-11-11T08:54:08.799Z,933.21
2018-11-11T08:55:08.786Z,933.32
2018-11-11T08:56:08.791Z,933.39
2018-11-11T08:57:08.764Z,933.42
2018-11-11T08:58:08.818Z,933.42
2018-11-11T08:59:08.740Z,933.45
2018-11-11T09:00:08.731Z,933.45
2018-11-11T09:01:08.737Z,933.49
2018-11-11T09:02:08.708Z,933.49
2018-11-11T09:03:08.698Z,933.51
2018-11-11T09:04:08.691Z,933.50
2018-11-11T09:05:08.675Z,933.49
2018-11-11T09:06:08.675Z,933.51
2018-11-11T09:07:08.652Z,933.50
2018-11-11T09:08:08.638Z,933.56
2018-11-11T09:09:08.628Z,933.59
2018-11-11T09:10:08.624Z,933.62
2018-11-11T09:11:08.617Z,933.67
2018-11-11T09:12:08.592Z,933.70
2018-11-11T09:13:08.582Z,933.74
2018-11-11T09:14:08.570Z,933.84
2018-11-11T09:15:08.561Z,933.89
2018-11-11T09:16:08.570Z,933.94
2018-11-11T09:17:08.574Z,933.96
2018-11-11T09:18:08.530Z,934.01
2018-11-11T09:19:08.514Z,934.03
2018-11-11T09:20:08.500Z,934.03
2018-11-11T09:21:08.513Z,934.06
2018-11-11T09:22:08.487Z,934.06
2018-11-11T09:23:08.466Z,934.11
2018-11-11T09:24:08.459Z,934.08
2018-11-11T09:25:08.443Z,934.03
2018-11-11T09:26:08.447Z,933.97
2018-11-11T09:27:08.420Z,933.96
2018-11-11T09:28:08.427Z,933.95
2018-11-11T09:29:08.398Z,933.90
2018-11-11T09:30:08.386Z,933.97
2018-11-11T09:31:08.417Z,934.01
2018-11-11T09:32:08.363Z,934.03
2018-11-11T09:33:08.351Z,933.97
2018-11-11T09:34:08.349Z,934.00
2018-11-11T09:35:08.366Z,934.10
2018-11-11T09:36:08.337Z,934.13
2018-11-11T09:37:08.306Z,934.11
2018-11-11T09:38:08.294Z,934.12
2018-11-11T09:39:08.354Z,934.17
2018-11-11T09:40:08.281Z,934.21
2018-11-11T09:41:08.276Z,934.14
2018-11-11T09:42:08.249Z,934.08
2018-11-11T09:43:08.239Z,934.05
2018-11-11T09:44:08.229Z,934.02
2018-11-11T09:45:08.215Z,933.99
2018-11-11T09:46:08.230Z,934.02
2018-11-11T09:47:08.190Z,934.04
2018-11-11T09:48:08.181Z,934.03
2018-11-11T09:49:08.169Z,934.11
2018-11-11T09:50:08.160Z,934.11
2018-11-11T09:51:08.178Z,934.14
2018-11-11T09:52:08.149Z,934.15
2018-11-11T09:53:08.126Z,934.14
2018-11-11T09:54:08.153Z,934.16
2018-11-11T09:55:08.101Z,934.14
2018-11-11T09:56:08.090Z,934.13
2018-11-11T09:57:08.094Z,934.09
2018-11-11T09:58:08.077Z,934.12
2018-11-11T09:59:08.057Z,934.13
2018-11-11T10:00:08.044Z,934.17
2018-11-11T10:01:08.037Z,934.13
2018-11-11T10:02:08.036Z,934.10
2018-11-11T10:03:08.011Z,934.09
2018-11-11T10:04:08.010Z,934.06
2018-11-11T10:05:07.986Z,934.03
2018-11-11T10:06:07.979Z,934.03
2018-11-11T10:07:08.117Z,934.03
2018-11-11T10:08:07.960Z,934.06
2018-11-11T10:09:07.944Z,934.04
2018-11-11T10:10:07.947Z,934.08
2018-11-11T10:11:07.920Z,934.10
2018-11-11T10:12:07.924Z,934.09
2018-11-11T10:13:07.898Z,934.09
2018-11-11T10:14:07.887Z,934.09
2018-11-11T10:15:07.881Z,934.12
2018-11-11T10:16:07.878Z,934.14
2018-11-11T10:17:07.869Z,934.14
2018-11-11T10:18:07.842Z,934.14
2018-11-11T10:19:07.833Z,934.15
2018-11-11T10:20:07.836Z,934.09
2018-11-11T10:21:07.808Z,934.06
2018-11-11T10:22:07.837Z,934.08
2018-11-11T10:23:07.785Z,934.06
2018-11-11T10:24:07.774Z,934.07
2018-11-11T10:25:07.764Z,934.02
2018-11-11T10:26:07.753Z,934.00
2018-11-11T10:27:07.774Z,933.97
2018-11-11T10:28:07.747Z,933.92
2018-11-11T10:29:07.738Z,933.91
2018-11-11T10:30:07.709Z,933.91
2018-11-11T10:31:07.697Z,933.97
2018-11-11T10:32:07.689Z,933.97
2018-11-11T10:33:07.700Z,934.08
2018-11-11T10:34:07.665Z,934.13
2018-11-11T10:35:07.652Z,934.07
2018-11-11T10:36:07.643Z,934.09
2018-11-11T10:37:07.687Z,934.06
2018-11-11T10:38:07.636Z,934.08
2018-11-11T10:39:07.674Z,934.10
2018-11-11T10:40:07.597Z,934.12
2018-11-11T10:41:07.587Z,934.12
2018-11-11T10:42:07.575Z,934.09
2018-11-11T10:43:07.578Z,934.09
2018-11-11T10:44:07.553Z,934.06
2018-11-11T10:45:07.542Z,934.03
2018-11-11T10:46:07.549Z,933.99
2018-11-11T10:47:07.518Z,933.95
2018-11-11T10:48:07.523Z,933.89
2018-11-11T10:49:07.498Z,933.89
2018-11-11T10:50:07.486Z,933.91
2018-11-11T10:51:07.475Z,933.91
2018-11-11T10:52:07.476Z,933.95
2018-11-11T10:53:07.472Z,933.95
2018-11-11T10:54:07.504Z,933.91
2018-11-11T10:55:07.430Z,933.93
2018-11-11T10:56:07.421Z,933.93
2018-11-11T10:57:07.422Z,933.93
2018-11-11T10:58:07.433Z,933.90
2018-11-11T10:59:07.387Z,933.95
2018-11-11T11:00:07.402Z,933.91
2018-11-11T11:01:07.379Z,933.93
2018-11-11T11:02:07.360Z,933.88
2018-11-11T11:03:07.342Z,933.87
2018-11-11T11:04:07.373Z,933.83
2018-11-11T11:05:07.323Z,933.85
2018-11-11T11:06:07.396Z,933.80
2018-11-11T11:07:07.302Z,933.82
2018-11-11T11:08:07.290Z,933.82
2018-11-11T11:09:07.294Z,933.78
2018-11-11T11:10:07.278Z,933.79
2018-11-11T11:11:07.254Z,933.75
2018-11-11T11:12:07.245Z,933.75
2018-11-11T11:13:07.253Z,933.77
2018-11-11T11:14:07.238Z,933.76
2018-11-11T11:15:07.211Z,933.83
2018-11-11T11:16:07.208Z,933.77
2018-11-11T11:17:07.188Z,933.78
2018-11-11T11:18:07.178Z,933.79
2018-11-11T11:19:07.184Z,933.80
2018-11-11T11:20:07.158Z,933.82
2018-11-11T11:21:07.145Z,933.81
2018-11-11T11:22:07.148Z,933.84
2018-11-11T11:23:07.182Z,933.83
2018-11-11T11:24:07.128Z,933.81
2018-11-11T11:25:07.104Z,933.82
2018-11-11T11:26:07.096Z,933.82
2018-11-11T11:27:07.087Z,933.82
2018-11-11T11:28:07.080Z,933.78
2018-11-11T11:29:07.078Z,933.82
2018-11-11T11:30:07.049Z,933.80
2018-11-11T11:31:07.039Z,933.84
2018-11-11T11:32:07.092Z,933.83
2018-11-11T11:33:07.017Z,933.83
2018-11-11T11:34:07.050Z,933.84
2018-11-11T11:35:07.052Z,933.84
2018-11-11T11:36:06.985Z,933.84
2018-11-11T11:37:06.977Z,933.86
2018-11-11T11:38:07.002Z,933.84
2018-11-11T11:39:06.952Z,933.83
2018-11-11T11:40:06.965Z,933.87
2018-11-11T11:41:06.990Z,933.83
2018-11-11T11:42:06.920Z,933.82
2018-11-11T11:43:06.921Z,933.74
2018-11-11T11:44:06.959Z,933.78
2018-11-11T11:45:06.904Z,933.78
2018-11-11T11:46:06.882Z,933.73
2018-11-11T11:47:06.865Z,933.74
2018-11-11T11:48:06.859Z,933.73
2018-11-11T11:49:06.841Z,933.72
2018-11-11T11:50:06.949Z,933.72
2018-11-11T11:51:06.831Z,933.69
2018-11-11T11:52:06.838Z,933.67
2018-11-11T11:53:06.803Z,933.66
2018-11-11T11:54:06.794Z,933.65
2018-11-11T11:55:06.790Z,933.70
2018-11-11T11:56:06.765Z,933.68
2018-11-11T11:57:06.761Z,933.65
2018-11-11T11:58:06.757Z,933.63
2018-11-11T11:59:06.731Z,933.62
2018-11-11T12:00:06.738Z,933.64
2018-11-11T12:01:06.709Z,933.61
2018-11-11T12:02:06.757Z,933.57
2018-11-11T12:03:06.697Z,933.48
2018-11-11T12:04:06.680Z,933.48
2018-11-11T12:05:06.679Z,933.48
2018-11-11T12:06:06.655Z,933.45
2018-11-11T12:07:06.643Z,933.40
2018-11-11T12:08:06.631Z,933.42
2018-11-11T12:09:06.716Z,933.37
2018-11-11T12:10:06.625Z,933.39
2018-11-11T12:11:06.600Z,933.39
2018-11-11T12:12:06.591Z,933.38
2018-11-11T12:13:06.576Z,933.34
2018-11-11T12:14:06.563Z,933.35
2018-11-11T12:15:06.577Z,933.31
2018-11-11T12:16:06.541Z,933.34
2018-11-11T12:17:06.615Z,933.29
2018-11-11T12:18:06.520Z,933.27
2018-11-11T12:19:06.506Z,933.28
2018-11-11T12:20:06.510Z,933.27
2018-11-11T12:21:06.493Z,933.31
2018-11-11T12:22:06.475Z,933.23
2018-11-11T12:23:06.534Z,933.27
2018-11-11T12:24:06.451Z,933.35
2018-11-11T12:25:06.455Z,933.36
2018-11-11T12:26:06.429Z,933.36
2018-11-11T12:27:06.421Z,933.38
2018-11-11T12:28:06.406Z,933.37